sensor_id;sensor_type;location;lat;lon;timestamp;pressure;altitude;pressure_sealevel;temperature;humidity
71457;BME280;59263;48.160;11.752;2023-05-23T00:01:28;95524.81;;;16.40;100.00
71457;BME280;59263;48.160;11.752;2023-05-23T00:03:58;95518.28;;;16.29;100.00
71457;BME280;59263;48.160;11.752;2023-05-23T00:06:23;95536.44;;;16.37;100.00
71457;BME280;59263;48.160;11.752;2023-05-23T00:08:48;95541.59;;;16.31;100.00
71457;BME280;59263;48.160;11.752;2023-05-23T00:11:14;95525.69;;;16.26;100.00
71457;BME280;59263;48.160;11.752;2023-05-23T00:13:40;95536.38;;;16.31;100.00
71457;BME280;59263;48.160;11.752;2023-05-23T00:16:05;95549.78;;;16.28;100.00
71457;BME280;59263;48.160;11.752;2023-05-23T00:18:34;95519.06;;;16.08;100.00
71457;BME280;59263;48.160;11.752;2023-05-23T00:20:59;95508.22;;;15.90;100.00
71457;BME280;59263;48.160;11.752;2023-05-23T00:23:26;95540.22;;;16.13;100.00
71457;BME280;59263;48.160;11.752;2023-05-23T00:25:54;95545.44;;;16.13;100.00
71457;BME280;59263;48.160;11.752;2023-05-23T00:28:20;95548.66;;;16.15;100.00
71457;BME280;59263;48.160;11.752;2023-05-23T00:30:45;95537.31;;;16.08;100.00
71457;BME280;59263;48.160;11.752;2023-05-23T00:33:11;95531.97;;;15.95;100.00
71457;BME280;59263;48.160;11.752;2023-05-23T00:35:38;95538.53;;;16.06;100.00
71457;BME280;59263;48.160;11.752;2023-05-23T00:38:04;95554.63;;;16.09;100.00
71457;BME280;59263;48.160;11.752;2023-05-23T00:40:32;95548.56;;;16.09;100.00
71457;BME280;59263;48.160;11.752;2023-05-23T00:42:57;95545.34;;;16.07;100.00
71457;BME280;59263;48.160;11.752;2023-05-23T00:45:22;95553.88;;;16.15;100.00
71457;BME280;59263;48.160;11.752;2023-05-23T00:47:48;95537.31;;;16.08;100.00
71457;BME280;59263;48.160;11.752;2023-05-23T00:50:15;95535.00;;;16.13;100.00
71457;BME280;59263;48.160;11.752;2023-05-23T00:52:42;95549.97;;;16.26;100.00
71457;BME280;59263;48.160;11.752;2023-05-23T00:55:08;95520.94;;;16.14;100.00
71457;BME280;59263;48.160;11.752;2023-05-23T00:57:35;95525.88;;;16.24;100.00
71457;BME280;59263;48.160;11.752;2023-05-23T01:00:05;95515.84;;;16.28;100.00
71457;BME280;59263;48.160;11.752;2023-05-23T01:02:33;95535.25;;;16.40;100.00
71457;BME280;59263;48.160;11.752;2023-05-23T01:05:00;95527.72;;;16.52;100.00
71457;BME280;59263;48.160;11.752;2023-05-23T01:07:27;95543.78;;;16.49;100.00
71457;BME280;59263;48.160;11.752;2023-05-23T01:09:52;95532.88;;;16.45;100.00
71457;BME280;59263;48.160;11.752;2023-05-23T01:14:51;95529.97;;;16.55;100.00
71457;BME280;59263;48.160;11.752;2023-05-23T01:20:06;95548.00;;;16.71;100.00
71457;BME280;59263;48.160;11.752;2023-05-23T01:22:40;95542.09;;;16.62;100.00
71457;BME280;59263;48.160;11.752;2023-05-23T01:28:02;95548.81;;;16.72;100.00
71457;BME280;59263;48.160;11.752;2023-05-23T01:30:38;95535.28;;;16.61;100.00
71457;BME280;59263;48.160;11.752;2023-05-23T01:33:05;95541.72;;;16.65;100.00
71457;BME280;59263;48.160;11.752;2023-05-23T01:35:32;95541.47;;;16.60;100.00
71457;BME280;59263;48.160;11.752;2023-05-23T01:37:57;95536.25;;;16.60;100.00
71457;BME280;59263;48.160;11.752;2023-05-23T01:40:24;95545.44;;;16.56;100.00
71457;BME280;59263;48.160;11.752;2023-05-23T01:42:51;95545.66;;;16.55;100.00
71457;BME280;59263;48.160;11.752;2023-05-23T01:45:17;95548.25;;;16.55;100.00
71457;BME280;59263;48.160;11.752;2023-05-23T01:47:43;95552.56;;;16.62;100.00
71457;BME280;59263;48.160;11.752;2023-05-23T01:50:10;95537.00;;;16.54;100.00
71457;BME280;59263;48.160;11.752;2023-05-23T01:52:36;95557.78;;;16.62;100.00
71457;BME280;59263;48.160;11.752;2023-05-23T01:55:05;95562.38;;;16.60;100.00
71457;BME280;59263;48.160;11.752;2023-05-23T01:57:35;95560.97;;;16.79;100.00
71457;BME280;59263;48.160;11.752;2023-05-23T02:00:01;95558.44;;;16.71;100.00
71457;BME280;59263;48.160;11.752;2023-05-23T02:02:26;95561.63;;;16.66;100.00
71457;BME280;59263;48.160;11.752;2023-05-23T02:04:52;95546.03;;;16.73;100.00
71457;BME280;59263;48.160;11.752;2023-05-23T02:07:18;95580.13;;;16.86;100.00
71457;BME280;59263;48.160;11.752;2023-05-23T02:09:47;95567.84;;;16.87;100.00
71457;BME280;59263;48.160;11.752;2023-05-23T02:12:12;95555.78;;;16.86;100.00
71457;BME280;59263;48.160;11.752;2023-05-23T02:14:37;95567.84;;;16.87;100.00
71457;BME280;59263;48.160;11.752;2023-05-23T02:17:04;95560.28;;;16.92;100.00
71457;BME280;59263;48.160;11.752;2023-05-23T02:19:29;95567.53;;;16.97;100.00
71457;BME280;59263;48.160;11.752;2023-05-23T02:21:54;95566.31;;;16.92;100.00
71457;BME280;59263;48.160;11.752;2023-05-23T02:24:19;95570.78;;;16.99;100.00
71457;BME280;59263;48.160;11.752;2023-05-23T02:26:45;95570.75;;;16.92;100.00
71457;BME280;59263;48.160;11.752;2023-05-23T02:29:10;95564.13;;;16.75;100.00
71457;BME280;59263;48.160;11.752;2023-05-23T02:31:35;95564.63;;;16.63;100.00
71457;BME280;59263;48.160;11.752;2023-05-23T02:34:01;95575.94;;;16.70;100.00
71457;BME280;59263;48.160;11.752;2023-05-23T02:36:26;95566.19;;;16.58;100.00
71457;BME280;59263;48.160;11.752;2023-05-23T02:38:51;95519.81;;;16.24;100.00
71457;BME280;59263;48.160;11.752;2023-05-23T02:41:17;95576.81;;;16.56;100.00
71457;BME280;59263;48.160;11.752;2023-05-23T02:43:45;95580.41;;;16.55;100.00
71457;BME280;59263;48.160;11.752;2023-05-23T02:46:11;95578.81;;;16.54;100.00
71457;BME280;59263;48.160;11.752;2023-05-23T02:48:37;95584.28;;;16.59;100.00
71457;BME280;59263;48.160;11.752;2023-05-23T02:51:03;95591.34;;;16.80;100.00
71457;BME280;59263;48.160;11.752;2023-05-23T02:53:28;95590.38;;;16.66;100.00
71457;BME280;59263;48.160;11.752;2023-05-23T02:55:53;95581.28;;;16.62;100.00
71457;BME280;59263;48.160;11.752;2023-05-23T02:58:18;95604.34;;;16.74;100.00
71457;BME280;59263;48.160;11.752;2023-05-23T03:00:44;95603.50;;;16.73;100.00
71457;BME280;59263;48.160;11.752;2023-05-23T03:03:10;95582.09;;;16.63;100.00
71457;BME280;59263;48.160;11.752;2023-05-23T03:05:35;95588.50;;;16.60;100.00
71457;BME280;59263;48.160;11.752;2023-05-23T03:08:01;95581.28;;;16.62;100.00
71457;BME280;59263;48.160;11.752;2023-05-23T03:10:26;95594.78;;;16.66;100.00
71457;BME280;59263;48.160;11.752;2023-05-23T03:12:52;95595.34;;;16.61;100.00
71457;BME280;59263;48.160;11.752;2023-05-23T03:15:17;95588.94;;;16.64;100.00
71457;BME280;59263;48.160;11.752;2023-05-23T03:17:42;95580.41;;;16.55;100.00
71457;BME280;59263;48.160;11.752;2023-05-23T03:20:08;95600.59;;;16.61;100.00
71457;BME280;59263;48.160;11.752;2023-05-23T03:22:34;95587.25;;;16.56;100.00
71457;BME280;59263;48.160;11.752;2023-05-23T03:25:00;95571.94;;;16.53;100.00
71457;BME280;59263;48.160;11.752;2023-05-23T03:27:26;95587.88;;;16.58;100.00
71457;BME280;59263;48.160;11.752;2023-05-23T03:29:51;95596.09;;;16.55;100.00
71457;BME280;59263;48.160;11.752;2023-05-23T03:32:16;95591.00;;;16.47;100.00
71457;BME280;59263;48.160;11.752;2023-05-23T03:34:41;95606.91;;;16.52;100.00
71457;BME280;59263;48.160;11.752;2023-05-23T03:37:07;95588.84;;;16.57;100.00
71457;BME280;59263;48.160;11.752;2023-05-23T03:39:32;95579.91;;;16.45;100.00
71457;BME280;59263;48.160;11.752;2023-05-23T03:41:57;95594.66;;;16.53;100.00
71457;BME280;59263;48.160;11.752;2023-05-23T03:44:23;95599.78;;;16.46;100.00
71457;BME280;59263;48.160;11.752;2023-05-23T03:46:48;95605.50;;;16.35;100.00
71457;BME280;59263;48.160;11.752;2023-05-23T03:49:13;95607.22;;;16.28;100.00
71457;BME280;59263;48.160;11.752;2023-05-23T03:51:39;95607.34;;;16.19;100.00
71457;BME280;59263;48.160;11.752;2023-05-23T03:54:05;95610.59;;;16.21;100.00
71457;BME280;59263;48.160;11.752;2023-05-23T03:56:30;95614.28;;;16.12;100.00
71457;BME280;59263;48.160;11.752;2023-05-23T03:58:56;95620.13;;;16.14;100.00
71457;BME280;59263;48.160;11.752;2023-05-23T04:01:21;95602.94;;;16.05;100.00
71457;BME280;59263;48.160;11.752;2023-05-23T04:03:47;95615.28;;;16.11;100.00
71457;BME280;59263;48.160;11.752;2023-05-23T04:06:13;95610.41;;;16.08;100.00
71457;BME280;59263;48.160;11.752;2023-05-23T04:08:38;95626.97;;;16.15;100.00
71457;BME280;59263;48.160;11.752;2023-05-23T04:11:06;95629.22;;;16.18;100.00
71457;BME280;59263;48.160;11.752;2023-05-23T04:13:32;95630.13;;;16.11;100.00
71457;BME280;59263;48.160;11.752;2023-05-23T04:15:59;95625.38;;;16.14;100.00
71457;BME280;59263;48.160;11.752;2023-05-23T04:18:25;95633.09;;;16.23;100.00
71457;BME280;59263;48.160;11.752;2023-05-23T04:20:51;95606.22;;;15.92;100.00
71457;BME280;59263;48.160;11.752;2023-05-23T04:23:16;95634.44;;;16.18;100.00
71457;BME280;59263;48.160;11.752;2023-05-23T04:25:41;95633.81;;;16.16;100.00
71457;BME280;59263;48.160;11.752;2023-05-23T04:28:07;95641.56;;;16.25;100.00
71457;BME280;59263;48.160;11.752;2023-05-23T04:30:34;95646.13;;;16.23;100.00
71457;BME280;59263;48.160;11.752;2023-05-23T04:33:00;95662.44;;;16.25;100.00
71457;BME280;59263;48.160;11.752;2023-05-23T04:35:25;95644.16;;;16.25;100.00
71457;BME280;59263;48.160;11.752;2023-05-23T04:37:53;95662.59;;;16.38;100.00
71457;BME280;59263;48.160;11.752;2023-05-23T04:40:21;95650.53;;;16.37;100.00
71457;BME280;59263;48.160;11.752;2023-05-23T04:42:47;95665.63;;;16.56;100.00
71457;BME280;59263;48.160;11.752;2023-05-23T04:45:12;95655.53;;;16.53;100.00
71457;BME280;59263;48.160;11.752;2023-05-23T04:47:37;95658.06;;;16.61;100.00
71457;BME280;59263;48.160;11.752;2023-05-23T04:50:03;95666.06;;;16.60;100.00
71457;BME280;59263;48.160;11.752;2023-05-23T04:52:29;95649.34;;;16.54;100.00
71457;BME280;59263;48.160;11.752;2023-05-23T04:54:57;95655.44;;;16.61;100.00
71457;BME280;59263;48.160;11.752;2023-05-23T04:57:22;95599.16;;;16.23;100.00
71457;BME280;59263;48.160;11.752;2023-05-23T04:59:48;95640.25;;;16.50;100.00
71457;BME280;59263;48.160;11.752;2023-05-23T05:02:13;95636.13;;;16.41;100.00
71457;BME280;59263;48.160;11.752;2023-05-23T05:04:38;95661.63;;;16.60;100.00
71457;BME280;59263;48.160;11.752;2023-05-23T05:07:05;95668.75;;;16.66;100.00
71457;BME280;59263;48.160;11.752;2023-05-23T05:09:30;95629.88;;;16.42;100.00
71457;BME280;59263;48.160;11.752;2023-05-23T05:11:57;95668.13;;;16.64;100.00
71457;BME280;59263;48.160;11.752;2023-05-23T05:14:27;95658.09;;;16.68;100.00
71457;BME280;59263;48.160;11.752;2023-05-23T05:16:52;95675.03;;;16.72;100.00
71457;BME280;59263;48.160;11.752;2023-05-23T05:19:19;95661.47;;;16.62;100.00
71457;BME280;59263;48.160;11.752;2023-05-23T05:21:45;95679.13;;;16.75;100.00
71457;BME280;59263;48.160;11.752;2023-05-23T05:24:10;95671.81;;;16.70;100.00
71457;BME280;59263;48.160;11.752;2023-05-23T05:26:36;95632.66;;;16.55;100.00
71457;BME280;59263;48.160;11.752;2023-05-23T05:29:01;95675.94;;;16.79;100.00
71457;BME280;59263;48.160;11.752;2023-05-23T05:31:27;95623.47;;;16.59;100.00
71457;BME280;59263;48.160;11.752;2023-05-23T05:33:53;95661.84;;;16.95;100.00
71457;BME280;59263;48.160;11.752;2023-05-23T05:36:19;95656.63;;;16.95;100.00
71457;BME280;59263;48.160;11.752;2023-05-23T05:38:45;95611.28;;;16.66;100.00
71457;BME280;59263;48.160;11.752;2023-05-23T05:41:10;95658.22;;;16.96;100.00
71457;BME280;59263;48.160;11.752;2023-05-23T05:43:36;95655.50;;;17.04;100.00
71457;BME280;59263;48.160;11.752;2023-05-23T05:46:01;95641.03;;;16.87;100.00
71457;BME280;59263;48.160;11.752;2023-05-23T05:48:26;95665.94;;;17.04;100.00
71457;BME280;59263;48.160;11.752;2023-05-23T05:50:52;95653.88;;;17.03;100.00
71457;BME280;59263;48.160;11.752;2023-05-23T05:53:17;95654.81;;;16.96;100.00
71457;BME280;59263;48.160;11.752;2023-05-23T05:55:43;95642.84;;;16.86;100.00
71457;BME280;59263;48.160;11.752;2023-05-23T05:58:08;95659.25;;;16.95;100.00
71457;BME280;59263;48.160;11.752;2023-05-23T06:00:33;95681.41;;;17.21;100.00
71457;BME280;59263;48.160;11.752;2023-05-23T06:03:06;95640.75;;;16.97;100.00
71457;BME280;59263;48.160;11.752;2023-05-23T06:05:31;95654.13;;;17.08;100.00
71457;BME280;59263;48.160;11.752;2023-05-23T06:07:57;95650.09;;;17.06;100.00
71457;BME280;59263;48.160;11.752;2023-05-23T06:10:22;95648.88;;;17.30;100.00
71457;BME280;59263;48.160;11.752;2023-05-23T06:12:48;95661.56;;;17.54;100.00
71457;BME280;59263;48.160;11.752;2023-05-23T06:15:14;95678.69;;;17.85;100.00
71457;BME280;59263;48.160;11.752;2023-05-23T06:17:40;95664.06;;;17.97;100.00
71457;BME280;59263;48.160;11.752;2023-05-23T06:20:06;95657.84;;;18.05;100.00
71457;BME280;59263;48.160;11.752;2023-05-23T06:22:32;95668.59;;;18.17;100.00
71457;BME280;59263;48.160;11.752;2023-05-23T06:24:58;95630.50;;;18.07;100.00
71457;BME280;59263;48.160;11.752;2023-05-23T06:27:23;95662.66;;;18.36;100.00
71457;BME280;59263;48.160;11.752;2023-05-23T06:29:50;95644.31;;;18.36;100.00
71457;BME280;59263;48.160;11.752;2023-05-23T06:32:15;95651.00;;;18.45;100.00
71457;BME280;59263;48.160;11.752;2023-05-23T06:34:40;95651.78;;;18.46;100.00
71457;BME280;59263;48.160;11.752;2023-05-23T06:37:06;95662.94;;;18.54;100.00
71457;BME280;59263;48.160;11.752;2023-05-23T06:39:31;95661.53;;;18.58;100.00
71457;BME280;59263;48.160;11.752;2023-05-23T06:41:56;95674.50;;;18.73;100.00
71457;BME280;59263;48.160;11.752;2023-05-23T06:44:22;95661.81;;;18.77;100.00
71457;BME280;59263;48.160;11.752;2023-05-23T06:46:47;95666.09;;;18.91;100.00
71457;BME280;59263;48.160;11.752;2023-05-23T06:49:14;95648.34;;;18.93;100.00
71457;BME280;59263;48.160;11.752;2023-05-23T06:51:39;95674.00;;;19.18;100.00
71457;BME280;59263;48.160;11.752;2023-05-23T06:54:05;95673.56;;;19.07;100.00
71457;BME280;59263;48.160;11.752;2023-05-23T06:56:30;95653.59;;;19.00;100.00
71457;BME280;59263;48.160;11.752;2023-05-23T06:58:56;95671.56;;;19.23;100.00
71457;BME280;59263;48.160;11.752;2023-05-23T07:01:21;95660.50;;;19.21;100.00
71457;BME280;59263;48.160;11.752;2023-05-23T07:03:46;95675.03;;;19.43;100.00
71457;BME280;59263;48.160;11.752;2023-05-23T07:06:12;95659.28;;;19.43;100.00
71457;BME280;59263;48.160;11.752;2023-05-23T07:08:37;95670.97;;;19.61;100.00
71457;BME280;59263;48.160;11.752;2023-05-23T07:11:03;95676.22;;;19.61;100.00
71457;BME280;59263;48.160;11.752;2023-05-23T07:13:29;95674.63;;;19.59;100.00
71457;BME280;59263;48.160;11.752;2023-05-23T07:15:55;95677.47;;;19.65;100.00
71457;BME280;59263;48.160;11.752;2023-05-23T07:18:22;95684.09;;;19.61;100.00
71457;BME280;59263;48.160;11.752;2023-05-23T07:20:48;95644.75;;;19.21;100.00
71457;BME280;59263;48.160;11.752;2023-05-23T07:23:14;95688.13;;;19.23;100.00
71457;BME280;59263;48.160;11.752;2023-05-23T07:25:40;95698.63;;;19.30;100.00
71457;BME280;59263;48.160;11.752;2023-05-23T07:28:06;95691.16;;;19.27;100.00
71457;BME280;59263;48.160;11.752;2023-05-23T07:30:32;95653.19;;;19.16;100.00
71457;BME280;59263;48.160;11.752;2023-05-23T07:32:57;95693.78;;;19.27;100.00
71457;BME280;59263;48.160;11.752;2023-05-23T07:35:22;95673.59;;;19.34;100.00
71457;BME280;59263;48.160;11.752;2023-05-23T07:37:51;95706.53;;;19.43;100.00
71457;BME280;59263;48.160;11.752;2023-05-23T07:40:17;95691.97;;;19.34;100.00
71457;BME280;59263;48.160;11.752;2023-05-23T07:42:43;95688.13;;;19.23;100.00
71457;BME280;59263;48.160;11.752;2023-05-23T07:45:08;95694.16;;;19.24;100.00
71457;BME280;59263;48.160;11.752;2023-05-23T07:47:34;95668.91;;;18.96;100.00
71457;BME280;59263;48.160;11.752;2023-05-23T07:49:59;95702.22;;;19.09;100.00
71457;BME280;59263;48.160;11.752;2023-05-23T07:52:27;95699.66;;;19.29;100.00
71457;BME280;59263;48.160;11.752;2023-05-23T07:54:53;95693.59;;;19.48;100.00
71457;BME280;59263;48.160;11.752;2023-05-23T07:57:18;95697.66;;;19.71;100.00
71457;BME280;59263;48.160;11.752;2023-05-23T07:59:43;95688.97;;;19.64;100.00
71457;BME280;59263;48.160;11.752;2023-05-23T08:02:09;95701.25;;;19.56;100.00
71457;BME280;59263;48.160;11.752;2023-05-23T08:04:34;95693.59;;;19.48;100.00
71457;BME280;59263;48.160;11.752;2023-05-23T08:06:59;95699.63;;;19.42;100.00
71457;BME280;59263;48.160;11.752;2023-05-23T08:09:25;95702.06;;;19.50;100.00
71457;BME280;59263;48.160;11.752;2023-05-23T08:11:51;95641.31;;;19.14;100.00
71457;BME280;59263;48.160;11.752;2023-05-23T08:14:16;95672.19;;;19.31;100.00
71457;BME280;59263;48.160;11.752;2023-05-23T08:16:41;95688.72;;;19.39;100.00
71457;BME280;59263;48.160;11.752;2023-05-23T08:19:07;95704.69;;;19.37;100.00
71457;BME280;59263;48.160;11.752;2023-05-23T08:21:37;95691.53;;;19.10;100.00
71457;BME280;59263;48.160;11.752;2023-05-23T08:24:03;95678.59;;;18.89;100.00
71457;BME280;59263;48.160;11.752;2023-05-23T08:26:28;95727.06;;;19.20;100.00
71457;BME280;59263;48.160;11.752;2023-05-23T08:28:59;95716.56;;;19.20;100.00
71457;BME280;59263;48.160;11.752;2023-05-23T08:31:26;95709.50;;;19.14;100.00
71457;BME280;59263;48.160;11.752;2023-05-23T08:33:52;95709.09;;;19.17;100.00
71457;BME280;59263;48.160;11.752;2023-05-23T08:36:17;95724.66;;;19.25;100.00
71457;BME280;59263;48.160;11.752;2023-05-23T08:38:42;95724.63;;;19.12;100.00
71457;BME280;59263;48.160;11.752;2023-05-23T08:41:15;95719.00;;;19.15;100.00
71457;BME280;59263;48.160;11.752;2023-05-23T08:43:42;95718.16;;;19.07;100.00
71457;BME280;59263;48.160;11.752;2023-05-23T08:46:08;95718.16;;;19.07;100.00
71457;BME280;59263;48.160;11.752;2023-05-23T08:48:34;95723.59;;;18.99;100.00
71457;BME280;59263;48.160;11.752;2023-05-23T08:51:02;95723.00;;;19.04;100.00
71457;BME280;59263;48.160;11.752;2023-05-23T08:53:28;95711.47;;;18.98;100.00
71457;BME280;59263;48.160;11.752;2023-05-23T08:55:55;95736.72;;;19.13;100.00
71457;BME280;59263;48.160;11.752;2023-05-23T08:58:26;95724.19;;;19.01;100.00
71457;BME280;59263;48.160;11.752;2023-05-23T09:00:54;95730.44;;;19.00;100.00
71457;BME280;59263;48.160;11.752;2023-05-23T09:03:19;95742.38;;;19.09;100.00
71457;BME280;59263;48.160;11.752;2023-05-23T09:05:45;95727.88;;;19.20;100.00
71457;BME280;59263;48.160;11.752;2023-05-23T09:08:11;95731.34;;;19.41;100.00
71457;BME280;59263;48.160;11.752;2023-05-23T09:10:37;95741.25;;;19.58;100.00
71457;BME280;59263;48.160;11.752;2023-05-23T09:13:04;95736.44;;;19.69;100.00
71457;BME280;59263;48.160;11.752;2023-05-23T09:15:29;95734.22;;;19.66;100.00
71457;BME280;59263;48.160;11.752;2023-05-23T09:17:59;95735.63;;;19.62;100.00
71457;BME280;59263;48.160;11.752;2023-05-23T09:20:26;95746.94;;;19.62;100.00
71457;BME280;59263;48.160;11.752;2023-05-23T09:22:53;95741.25;;;19.58;100.00
71457;BME280;59263;48.160;11.752;2023-05-23T09:25:19;95743.06;;;19.51;100.00
71457;BME280;59263;48.160;11.752;2023-05-23T09:27:45;95746.09;;;19.48;100.00
71457;BME280;59263;48.160;11.752;2023-05-23T09:30:11;95735.38;;;19.56;100.00
71457;BME280;59263;48.160;11.752;2023-05-23T09:32:36;95729.97;;;19.58;100.00
71457;BME280;59263;48.160;11.752;2023-05-23T09:35:03;95748.34;;;19.65;100.00
71457;BME280;59263;48.160;11.752;2023-05-23T09:37:35;95737.63;;;19.59;100.00
71457;BME280;59263;48.160;11.752;2023-05-23T09:40:12;95737.63;;;19.59;100.00
71457;BME280;59263;48.160;11.752;2023-05-23T09:42:42;95738.84;;;19.64;100.00
71457;BME280;59263;48.160;11.752;2023-05-23T09:45:08;95728.94;;;19.52;100.00
71457;BME280;59263;48.160;11.752;2023-05-23T09:47:34;95739.22;;;19.54;100.00
71457;BME280;59263;48.160;11.752;2023-05-23T09:49:59;95750.13;;;19.51;100.00
71457;BME280;59263;48.160;11.752;2023-05-23T09:52:24;95745.06;;;19.43;100.00
71457;BME280;59263;48.160;11.752;2023-05-23T09:54:50;95740.81;;;19.42;100.00
71457;BME280;59263;48.160;11.752;2023-05-23T09:57:16;95743.06;;;19.45;100.00
71457;BME280;59263;48.160;11.752;2023-05-23T09:59:50;95741.84;;;19.41;100.00
71457;BME280;59263;48.160;11.752;2023-05-23T10:02:30;95743.03;;;19.38;100.00
71457;BME280;59263;48.160;11.752;2023-05-23T10:05:05;95741.03;;;19.40;100.00
71457;BME280;59263;48.160;11.752;2023-05-23T10:07:33;95741.44;;;19.37;100.00
71457;BME280;59263;48.160;11.752;2023-05-23T10:10:03;95748.91;;;19.40;100.00
71457;BME280;59263;48.160;11.752;2023-05-23T10:15:01;95741.25;;;19.58;100.00
71457;BME280;59263;48.160;11.752;2023-05-23T10:20:13;95729.34;;;19.76;100.00
71457;BME280;59263;48.160;11.752;2023-05-23T10:22:41;95732.38;;;19.86;100.00
71457;BME280;59263;48.160;11.752;2023-05-23T10:25:07;95721.47;;;19.89;100.00
71457;BME280;59263;48.160;11.752;2023-05-23T10:27:35;95730.78;;;19.92;100.00
71457;BME280;59263;48.160;11.752;2023-05-23T10:30:02;95716.84;;;19.91;100.00
71457;BME280;59263;48.160;11.752;2023-05-23T10:32:28;95721.47;;;20.02;100.00
71457;BME280;59263;48.160;11.752;2023-05-23T10:38:17;95709.50;;;20.20;100.00
71457;BME280;59263;48.160;11.752;2023-05-23T10:41:05;95712.53;;;20.30;100.00
71457;BME280;59263;48.160;11.752;2023-05-23T10:46:54;95712.88;;;20.60;100.00
71457;BME280;59263;48.160;11.752;2023-05-23T10:49:36;95715.22;;;20.75;100.00
71457;BME280;59263;48.160;11.752;2023-05-23T10:52:01;95712.16;;;20.85;100.00
71457;BME280;59263;48.160;11.752;2023-05-23T10:54:33;95694.31;;;20.93;100.00
71457;BME280;59263;48.160;11.752;2023-05-23T10:57:05;95698.13;;;20.97;100.00
71457;BME280;59263;48.160;11.752;2023-05-23T10:59:30;95704.81;;;20.93;100.00
71457;BME280;59263;48.160;11.752;2023-05-23T11:01:56;95706.25;;;20.89;100.00
71457;BME280;59263;48.160;11.752;2023-05-23T11:04:26;95709.06;;;20.94;100.00
71457;BME280;59263;48.160;11.752;2023-05-23T11:06:53;95698.25;;;20.71;100.00
71457;BME280;59263;48.160;11.752;2023-05-23T11:09:20;95710.44;;;20.59;100.00
71457;BME280;59263;48.160;11.752;2023-05-23T11:12:05;95702.38;;;20.47;100.00
71457;BME280;59263;48.160;11.752;2023-05-23T11:17:13;95687.34;;;20.67;100.00
71457;BME280;59263;48.160;11.752;2023-05-23T11:19:54;95696.25;;;20.66;100.00
71457;BME280;59263;48.160;11.752;2023-05-23T11:22:21;95698.63;;;20.81;100.00
71457;BME280;59263;48.160;11.752;2023-05-23T11:24:50;95686.81;;;20.90;100.00
71457;BME280;59263;48.160;11.752;2023-05-23T11:30:11;95684.63;;;21.19;100.00
71457;BME280;59263;48.160;11.752;2023-05-23T11:32:41;95678.97;;;21.22;100.00
71457;BME280;59263;48.160;11.752;2023-05-23T11:35:08;95677.31;;;21.21;100.00
71457;BME280;59263;48.160;11.752;2023-05-23T11:37:36;95678.09;;;21.28;100.00
71457;BME280;59263;48.160;11.752;2023-05-23T11:42:49;95670.88;;;21.48;100.00
71457;BME280;59263;48.160;11.752;2023-05-23T11:45:18;95669.53;;;21.39;100.00
71457;BME280;59263;48.160;11.752;2023-05-23T11:47:43;95677.28;;;21.27;100.00
71457;BME280;59263;48.160;11.752;2023-05-23T11:50:09;95668.25;;;21.17;100.00
71457;BME280;59263;48.160;11.752;2023-05-23T11:52:34;95670.19;;;21.28;100.00
71457;BME280;59263;48.160;11.752;2023-05-23T11:55:00;95675.41;;;21.41;100.00
71457;BME280;59263;48.160;11.752;2023-05-23T11:57:26;95665.13;;;21.33;100.00
71457;BME280;59263;48.160;11.752;2023-05-23T11:59:51;95675.03;;;21.31;100.00
71457;BME280;59263;48.160;11.752;2023-05-23T12:02:16;95681.38;;;21.23;100.00
71457;BME280;59263;48.160;11.752;2023-05-23T12:04:42;95681.09;;;21.07;100.00
71457;BME280;59263;48.160;11.752;2023-05-23T12:07:07;95684.72;;;21.06;100.00
71457;BME280;59263;48.160;11.752;2023-05-23T12:09:41;95690.84;;;20.99;100.00
71457;BME280;59263;48.160;11.752;2023-05-23T12:12:06;95686.13;;;21.08;100.00
71457;BME280;59263;48.160;11.752;2023-05-23T12:14:32;95681.50;;;21.03;100.00
71457;BME280;59263;48.160;11.752;2023-05-23T12:16:58;95674.28;;;20.92;100.00
71457;BME280;59263;48.160;11.752;2023-05-23T12:19:24;95684.94;;;21.04;100.00
71457;BME280;59263;48.160;11.752;2023-05-23T12:21:49;95678.63;;;21.12;100.00
71457;BME280;59263;48.160;11.752;2023-05-23T12:24:19;95684.91;;;21.11;100.00
71457;BME280;59263;48.160;11.752;2023-05-23T12:26:53;95664.16;;;21.21;100.00
71457;BME280;59263;48.160;11.752;2023-05-23T12:29:37;95672.00;;;21.34;100.00
71457;BME280;59263;48.160;11.752;2023-05-23T12:32:06;95668.38;;;21.29;100.00
71457;BME280;59263;48.160;11.752;2023-05-23T12:34:32;95676.97;;;21.17;100.00
71457;BME280;59263;48.160;11.752;2023-05-23T12:36:59;95672.81;;;21.28;100.00
71457;BME280;59263;48.160;11.752;2023-05-23T12:39:27;95679.63;;;21.42;100.00
71457;BME280;59263;48.160;11.752;2023-05-23T12:42:06;95669.72;;;21.44;100.00
71457;BME280;59263;48.160;11.752;2023-05-23T12:44:35;95673.38;;;21.43;100.00
71457;BME280;59263;48.160;11.752;2023-05-23T12:47:03;95676.44;;;21.40;100.00
71457;BME280;59263;48.160;11.752;2023-05-23T12:49:29;95682.53;;;21.34;100.00
71457;BME280;59263;48.160;11.752;2023-05-23T12:51:54;95690.66;;;21.26;100.00
71457;BME280;59263;48.160;11.752;2023-05-23T12:54:19;95676.97;;;21.17;100.00
71457;BME280;59263;48.160;11.752;2023-05-23T12:56:45;95679.91;;;21.02;100.00
71457;BME280;59263;48.160;11.752;2023-05-23T12:59:10;95688.41;;;20.98;100.00
71457;BME280;59263;48.160;11.752;2023-05-23T13:01:36;95681.03;;;20.75;100.00
71457;BME280;59263;48.160;11.752;2023-05-23T13:04:01;95681.97;;;20.87;100.00
71457;BME280;59263;48.160;11.752;2023-05-23T13:06:27;95683.63;;;20.88;100.00